Terminal Aerodrome Forecast
Issued by NWS Upton, NY

Home | Current Version | Previous Version | Text Only | Print | Product List | Glossary On
Versions: 1 2 3 4 5 6 7 8 9 10 11 12 13 14 15 16 17 18 19 20 21 22 23 24 25 26 27 28 29 30
000
FTUS41 KOKX 012300
TAFJFK
TAF
KJFK 012335Z 0200/0306 18007KT P6SM SCT040 BKN100
     FM020600 10005KT P6SM SCT040 BKN100
     FM020900 06009KT 6SM -RA FEW020 OVC040
     FM021200 05012KT 5SM RA BR SCT015 OVC025
     FM022000 09009KT P6SM BKN025 OVC050
     FM030300 06005KT P6SM OVC030=

USA.gov is the U.S. government's official web portal to all federal, state and local government web resources and services.